sensor_id;sensor_type;location;lat;lon;timestamp;pressure;altitude;pressure_sealevel;temperature;humidity
59337;BME280;45115;52.002;4.686;2022-12-16T00:00:43;101062.38;;;-0.53;100.00
59337;BME280;45115;52.002;4.686;2022-12-16T00:03:10;101053.13;;;-0.56;100.00
59337;BME280;45115;52.002;4.686;2022-12-16T00:05:38;101064.19;;;-0.54;100.00
59337;BME280;45115;52.002;4.686;2022-12-16T00:08:05;101068.91;;;-0.42;100.00
59337;BME280;45115;52.002;4.686;2022-12-16T00:10:31;101065.94;;;-0.39;100.00
59337;BME280;45115;52.002;4.686;2022-12-16T00:13:17;101067.31;;;-0.43;100.00
59337;BME280;45115;52.002;4.686;2022-12-16T00:15:44;101072.63;;;-0.51;100.00
59337;BME280;45115;52.002;4.686;2022-12-16T00:18:12;101084.47;;;-0.49;100.00
59337;BME280;45115;52.002;4.686;2022-12-16T00:20:44;101085.91;;;-0.46;100.00
59337;BME280;45115;52.002;4.686;2022-12-16T00:23:11;101093.41;;;-0.58;100.00
59337;BME280;45115;52.002;4.686;2022-12-16T00:25:39;101089.84;;;-0.57;100.00
59337;BME280;45115;52.002;4.686;2022-12-16T00:28:06;101085.56;;;-0.65;100.00
59337;BME280;45115;52.002;4.686;2022-12-16T00:30:33;101079.53;;;-0.65;100.00
59337;BME280;45115;52.002;4.686;2022-12-16T00:33:00;101089.94;;;-0.65;100.00
59337;BME280;45115;52.002;4.686;2022-12-16T00:35:26;101092.22;;;-0.56;100.00
59337;BME280;45115;52.002;4.686;2022-12-16T00:37:56;101089.19;;;-0.59;100.00
59337;BME280;45115;52.002;4.686;2022-12-16T00:40:24;101093.97;;;-0.41;100.00
59337;BME280;45115;52.002;4.686;2022-12-16T00:42:51;101104.47;;;-0.34;100.00
59337;BME280;45115;52.002;4.686;2022-12-16T00:45:18;101097.88;;;-0.30;100.00
59337;BME280;45115;52.002;4.686;2022-12-16T00:47:45;101113.59;;;-0.23;100.00
59337;BME280;45115;52.002;4.686;2022-12-16T00:50:14;101111.16;;;-0.25;100.00
59337;BME280;45115;52.002;4.686;2022-12-16T00:52:41;101116.38;;;-0.25;100.00
59337;BME280;45115;52.002;4.686;2022-12-16T00:55:09;101108.91;;;-0.28;100.00
59337;BME280;45115;52.002;4.686;2022-12-16T00:57:37;101118.31;;;-0.34;100.00
59337;BME280;45115;52.002;4.686;2022-12-16T01:00:05;101113.47;;;-0.37;100.00
59337;BME280;45115;52.002;4.686;2022-12-16T01:02:33;101116.44;;;-0.40;100.00
59337;BME280;45115;52.002;4.686;2022-12-16T01:05:00;101111.97;;;-0.46;100.00
59337;BME280;45115;52.002;4.686;2022-12-16T01:07:27;101112.16;;;-0.48;100.00
59337;BME280;45115;52.002;4.686;2022-12-16T01:09:53;101113.16;;;-0.49;100.00
59337;BME280;45115;52.002;4.686;2022-12-16T01:12:21;101112.47;;;-0.58;100.00
59337;BME280;45115;52.002;4.686;2022-12-16T01:14:48;101119.22;;;-0.63;100.00
59337;BME280;45115;52.002;4.686;2022-12-16T01:17:15;101111.16;;;-0.69;100.00
59337;BME280;45115;52.002;4.686;2022-12-16T01:19:42;101118.69;;;-0.81;100.00
59337;BME280;45115;52.002;4.686;2022-12-16T01:22:10;101118.28;;;-0.77;100.00
59337;BME280;45115;52.002;4.686;2022-12-16T01:24:36;101130.69;;;-0.79;100.00
59337;BME280;45115;52.002;4.686;2022-12-16T01:27:03;101132.34;;;-0.94;100.00
59337;BME280;45115;52.002;4.686;2022-12-16T01:29:31;101137.47;;;-1.00;100.00
59337;BME280;45115;52.002;4.686;2022-12-16T01:31:58;101142.34;;;-0.97;100.00
59337;BME280;45115;52.002;4.686;2022-12-16T01:34:25;101148.47;;;-1.05;100.00
59337;BME280;45115;52.002;4.686;2022-12-16T01:36:51;101152.84;;;-1.05;100.00
59337;BME280;45115;52.002;4.686;2022-12-16T01:39:18;101153.66;;;-1.05;100.00
59337;BME280;45115;52.002;4.686;2022-12-16T01:41:45;101160.22;;;-1.09;100.00
59337;BME280;45115;52.002;4.686;2022-12-16T01:44:14;101170.91;;;-1.04;100.00
59337;BME280;45115;52.002;4.686;2022-12-16T01:46:43;101175.38;;;-0.98;100.00
59337;BME280;45115;52.002;4.686;2022-12-16T01:49:17;101175.84;;;-1.09;100.00
59337;BME280;45115;52.002;4.686;2022-12-16T01:51:47;101177.66;;;-1.25;100.00
59337;BME280;45115;52.002;4.686;2022-12-16T01:54:18;101186.72;;;-1.21;100.00
59337;BME280;45115;52.002;4.686;2022-12-16T01:56:47;101181.94;;;-1.17;100.00
59337;BME280;45115;52.002;4.686;2022-12-16T01:59:16;101183.63;;;-1.24;100.00
59337;BME280;45115;52.002;4.686;2022-12-16T02:01:45;101195.75;;;-1.16;100.00
59337;BME280;45115;52.002;4.686;2022-12-16T02:04:12;101192.63;;;-1.12;100.00
59337;BME280;45115;52.002;4.686;2022-12-16T02:06:39;101189.84;;;-1.10;100.00
59337;BME280;45115;52.002;4.686;2022-12-16T02:09:08;101200.28;;;-1.10;100.00
59337;BME280;45115;52.002;4.686;2022-12-16T02:11:51;101201.50;;;-1.06;100.00
59337;BME280;45115;52.002;4.686;2022-12-16T02:14:36;101201.63;;;-1.14;100.00
59337;BME280;45115;52.002;4.686;2022-12-16T02:17:11;101196.13;;;-1.19;100.00
59337;BME280;45115;52.002;4.686;2022-12-16T02:20:04;101200.63;;;-1.28;100.00
59337;BME280;45115;52.002;4.686;2022-12-16T02:22:40;101207.78;;;-1.30;100.00
59337;BME280;45115;52.002;4.686;2022-12-16T02:28:11;101212.47;;;-1.11;100.00
59337;BME280;45115;52.002;4.686;2022-12-16T02:30:58;101208.34;;;-1.20;100.00
59337;BME280;45115;52.002;4.686;2022-12-16T02:33:38;101213.53;;;-1.20;100.00
59337;BME280;45115;52.002;4.686;2022-12-16T02:36:14;101195.31;;;-1.20;100.00
59337;BME280;45115;52.002;4.686;2022-12-16T02:38:48;101212.38;;;-1.17;100.00
59337;BME280;45115;52.002;4.686;2022-12-16T02:41:20;101212.19;;;-1.16;100.00
59337;BME280;45115;52.002;4.686;2022-12-16T02:43:55;101206.47;;;-1.26;100.00
59337;BME280;45115;52.002;4.686;2022-12-16T02:46:27;101213.16;;;-1.32;100.00
59337;BME280;45115;52.002;4.686;2022-12-16T02:48:55;101214.44;;;-1.28;100.00
59337;BME280;45115;52.002;4.686;2022-12-16T02:51:25;101213.53;;;-1.35;100.00
59337;BME280;45115;52.002;4.686;2022-12-16T02:53:55;101203.13;;;-1.35;100.00
59337;BME280;45115;52.002;4.686;2022-12-16T02:56:30;101215.31;;;-1.36;100.00
59337;BME280;45115;52.002;4.686;2022-12-16T02:59:08;101218.19;;;-1.45;100.00
59337;BME280;45115;52.002;4.686;2022-12-16T03:01:45;101218.47;;;-1.55;100.00
59337;BME280;45115;52.002;4.686;2022-12-16T03:04:18;101217.53;;;-1.63;100.00
59337;BME280;45115;52.002;4.686;2022-12-16T03:06:48;101231.00;;;-1.59;100.00
59337;BME280;45115;52.002;4.686;2022-12-16T03:09:18;101227.44;;;-1.58;100.00
59337;BME280;45115;52.002;4.686;2022-12-16T03:11:48;101240.81;;;-1.46;100.00
59337;BME280;45115;52.002;4.686;2022-12-16T03:14:18;101244.69;;;-1.42;100.00
59337;BME280;45115;52.002;4.686;2022-12-16T03:16:48;101236.25;;;-1.44;100.00
59337;BME280;45115;52.002;4.686;2022-12-16T03:19:16;101229.31;;;-1.52;100.00
59337;BME280;45115;52.002;4.686;2022-12-16T03:21:48;101249.03;;;-1.57;100.00
59337;BME280;45115;52.002;4.686;2022-12-16T03:24:18;101253.19;;;-1.48;100.00
59337;BME280;45115;52.002;4.686;2022-12-16T03:26:51;101257.13;;;-1.52;100.00
59337;BME280;45115;52.002;4.686;2022-12-16T03:29:25;101248.47;;;-1.68;100.00
59337;BME280;45115;52.002;4.686;2022-12-16T03:31:58;101263.09;;;-1.67;100.00
59337;BME280;45115;52.002;4.686;2022-12-16T03:34:31;101268.28;;;-1.67;100.00
59337;BME280;45115;52.002;4.686;2022-12-16T03:37:01;101270.97;;;-1.75;100.00
59337;BME280;45115;52.002;4.686;2022-12-16T03:39:31;101275.34;;;-1.76;100.00
59337;BME280;45115;52.002;4.686;2022-12-16T03:41:59;101285.94;;;-1.77;100.00
59337;BME280;45115;52.002;4.686;2022-12-16T03:44:27;101276.81;;;-1.96;100.00
59337;BME280;45115;52.002;4.686;2022-12-16T03:46:55;101279.94;;;-2.01;100.00
59337;BME280;45115;52.002;4.686;2022-12-16T03:49:22;101273.28;;;-2.04;100.00
59337;BME280;45115;52.002;4.686;2022-12-16T03:51:48;101283.56;;;-1.87;100.00
59337;BME280;45115;52.002;4.686;2022-12-16T03:54:15;101282.75;;;-1.64;100.00
59337;BME280;45115;52.002;4.686;2022-12-16T03:56:43;101281.31;;;-1.67;100.00
59337;BME280;45115;52.002;4.686;2022-12-16T03:59:10;101281.41;;;-1.60;100.00
59337;BME280;45115;52.002;4.686;2022-12-16T04:01:36;101277.09;;;-1.68;100.00
59337;BME280;45115;52.002;4.686;2022-12-16T04:04:05;101286.50;;;-1.67;100.00
59337;BME280;45115;52.002;4.686;2022-12-16T04:06:32;101292.41;;;-1.50;100.00
59337;BME280;45115;52.002;4.686;2022-12-16T04:08:59;101294.97;;;-1.26;100.00
59337;BME280;45115;52.002;4.686;2022-12-16T04:11:26;101300.47;;;-1.06;100.00
59337;BME280;45115;52.002;4.686;2022-12-16T04:14:10;101298.06;;;-1.08;100.00
59337;BME280;45115;52.002;4.686;2022-12-16T04:16:55;101303.28;;;-0.92;100.00
59337;BME280;45115;52.002;4.686;2022-12-16T04:19:42;101297.25;;;-0.93;100.00
59337;BME280;45115;52.002;4.686;2022-12-16T04:22:30;101293.31;;;-1.04;100.00
59337;BME280;45115;52.002;4.686;2022-12-16T04:25:18;101296.06;;;-1.05;100.00
59337;BME280;45115;52.002;4.686;2022-12-16T04:27:46;101300.13;;;-1.03;100.00
59337;BME280;45115;52.002;4.686;2022-12-16T04:30:14;101309.63;;;-1.10;100.00
59337;BME280;45115;52.002;4.686;2022-12-16T04:32:50;101308.88;;;-1.19;100.00
59337;BME280;45115;52.002;4.686;2022-12-16T04:35:36;101314.19;;;-1.27;100.00
59337;BME280;45115;52.002;4.686;2022-12-16T04:38:21;101317.34;;;-1.17;100.00
59337;BME280;45115;52.002;4.686;2022-12-16T04:41:05;101323.91;;;-1.06;100.00
59337;BME280;45115;52.002;4.686;2022-12-16T04:43:50;101326.59;;;-1.14;100.00
59337;BME280;45115;52.002;4.686;2022-12-16T04:46:34;101328.75;;;-1.18;100.00
59337;BME280;45115;52.002;4.686;2022-12-16T04:49:18;101330.38;;;-1.17;100.00
59337;BME280;45115;52.002;4.686;2022-12-16T04:52:04;101328.41;;;-1.38;100.00
59337;BME280;45115;52.002;4.686;2022-12-16T04:54:49;101338.53;;;-1.43;100.00
59337;BME280;45115;52.002;4.686;2022-12-16T04:57:33;101338.66;;;-1.37;100.00
59337;BME280;45115;52.002;4.686;2022-12-16T05:00:17;101335.81;;;-1.50;100.00
59337;BME280;45115;52.002;4.686;2022-12-16T05:03:01;101342.19;;;-1.76;100.00
59337;BME280;45115;52.002;4.686;2022-12-16T05:05:45;101336.44;;;-1.95;100.00
59337;BME280;45115;52.002;4.686;2022-12-16T05:08:31;101339.28;;;-2.05;100.00
59337;BME280;45115;52.002;4.686;2022-12-16T05:11:15;101336.41;;;-2.18;100.00
59337;BME280;45115;52.002;4.686;2022-12-16T05:13:59;101344.88;;;-2.24;100.00
59337;BME280;45115;52.002;4.686;2022-12-16T05:16:43;101338.47;;;-2.45;100.00
59337;BME280;45115;52.002;4.686;2022-12-16T05:19:28;101344.50;;;-2.61;100.00
59337;BME280;45115;52.002;4.686;2022-12-16T05:22:12;101347.97;;;-2.77;100.00
59337;BME280;45115;52.002;4.686;2022-12-16T05:24:57;101351.06;;;-2.90;100.00
59337;BME280;45115;52.002;4.686;2022-12-16T05:27:41;101351.75;;;-3.05;100.00
59337;BME280;45115;52.002;4.686;2022-12-16T05:30:26;101348.34;;;-3.05;100.00
59337;BME280;45115;52.002;4.686;2022-12-16T05:33:10;101358.88;;;-3.07;100.00
59337;BME280;45115;52.002;4.686;2022-12-16T05:35:54;101366.00;;;-2.92;100.00
59337;BME280;45115;52.002;4.686;2022-12-16T05:38:38;101364.72;;;-2.97;100.00
59337;BME280;45115;52.002;4.686;2022-12-16T05:41:24;101366.19;;;-2.94;100.00
59337;BME280;45115;52.002;4.686;2022-12-16T05:44:08;101370.88;;;-3.06;100.00
59337;BME280;45115;52.002;4.686;2022-12-16T05:46:52;101373.66;;;-2.99;100.00
59337;BME280;45115;52.002;4.686;2022-12-16T05:49:36;101365.66;;;-2.98;100.00
59337;BME280;45115;52.002;4.686;2022-12-16T05:52:21;101379.34;;;-3.12;100.00
59337;BME280;45115;52.002;4.686;2022-12-16T05:55:06;101387.91;;;-3.12;100.00
59337;BME280;45115;52.002;4.686;2022-12-16T05:57:51;101385.00;;;-3.17;100.00
59337;BME280;45115;52.002;4.686;2022-12-16T06:00:36;101389.03;;;-3.31;100.00
59337;BME280;45115;52.002;4.686;2022-12-16T06:03:20;101393.59;;;-3.50;100.00
59337;BME280;45115;52.002;4.686;2022-12-16T06:06:05;101398.06;;;-3.68;100.00
59337;BME280;45115;52.002;4.686;2022-12-16T06:08:49;101397.19;;;-3.85;100.00
59337;BME280;45115;52.002;4.686;2022-12-16T06:11:33;101401.06;;;-3.98;100.00
59337;BME280;45115;52.002;4.686;2022-12-16T06:14:19;101400.53;;;-4.10;100.00
59337;BME280;45115;52.002;4.686;2022-12-16T06:17:03;101404.38;;;-4.22;100.00
59337;BME280;45115;52.002;4.686;2022-12-16T06:19:47;101405.44;;;-4.33;100.00
59337;BME280;45115;52.002;4.686;2022-12-16T06:22:32;101408.34;;;-4.36;100.00
59337;BME280;45115;52.002;4.686;2022-12-16T06:25:16;101411.38;;;-4.41;100.00
59337;BME280;45115;52.002;4.686;2022-12-16T06:28:00;101409.47;;;-4.39;100.00
59337;BME280;45115;52.002;4.686;2022-12-16T06:30:48;101416.28;;;-4.38;100.00
59337;BME280;45115;52.002;4.686;2022-12-16T06:33:32;101405.19;;;-4.48;100.00
59337;BME280;45115;52.002;4.686;2022-12-16T06:36:17;101421.44;;;-4.38;100.00
59337;BME280;45115;52.002;4.686;2022-12-16T06:39:01;101427.47;;;-4.29;100.00
59337;BME280;45115;52.002;4.686;2022-12-16T06:41:45;101424.94;;;-4.21;100.00
59337;BME280;45115;52.002;4.686;2022-12-16T06:44:30;101429.03;;;-4.10;100.00
59337;BME280;45115;52.002;4.686;2022-12-16T06:47:15;101436.03;;;-4.02;100.00
59337;BME280;45115;52.002;4.686;2022-12-16T06:49:59;101428.31;;;-3.94;100.00
59337;BME280;45115;52.002;4.686;2022-12-16T06:52:44;101436.56;;;-3.90;100.00
59337;BME280;45115;52.002;4.686;2022-12-16T06:55:28;101444.06;;;-3.79;100.00
59337;BME280;45115;52.002;4.686;2022-12-16T06:58:12;101453.03;;;-3.65;100.00
59337;BME280;45115;52.002;4.686;2022-12-16T07:00:57;101451.25;;;-3.64;100.00
59337;BME280;45115;52.002;4.686;2022-12-16T07:03:42;101460.16;;;-3.67;100.00
59337;BME280;45115;52.002;4.686;2022-12-16T07:06:26;101464.19;;;-3.72;100.00
59337;BME280;45115;52.002;4.686;2022-12-16T07:09:11;101461.72;;;-3.74;100.00
59337;BME280;45115;52.002;4.686;2022-12-16T07:11:55;101464.50;;;-3.76;100.00
59337;BME280;45115;52.002;4.686;2022-12-16T07:14:39;101462.72;;;-3.75;100.00
59337;BME280;45115;52.002;4.686;2022-12-16T07:17:23;101470.00;;;-3.79;100.00
59337;BME280;45115;52.002;4.686;2022-12-16T07:20:10;101469.91;;;-3.95;100.00
59337;BME280;45115;52.002;4.686;2022-12-16T07:22:54;101477.00;;;-4.06;100.00
59337;BME280;45115;52.002;4.686;2022-12-16T07:25:38;101474.47;;;-4.24;100.00
59337;BME280;45115;52.002;4.686;2022-12-16T07:28:22;101485.31;;;-4.29;100.00
59337;BME280;45115;52.002;4.686;2022-12-16T07:31:07;101493.38;;;-4.32;100.00
59337;BME280;45115;52.002;4.686;2022-12-16T07:33:51;101499.19;;;-4.30;100.00
59337;BME280;45115;52.002;4.686;2022-12-16T07:36:36;101505.38;;;-3.96;100.00
59337;BME280;45115;52.002;4.686;2022-12-16T07:39:21;101510.34;;;-3.84;100.00
59337;BME280;45115;52.002;4.686;2022-12-16T07:42:04;101517.34;;;-3.68;100.00
59337;BME280;45115;52.002;4.686;2022-12-16T07:44:49;101522.03;;;-3.72;100.00
59337;BME280;45115;52.002;4.686;2022-12-16T07:47:33;101526.25;;;-3.71;100.00
59337;BME280;45115;52.002;4.686;2022-12-16T07:50:18;101531.41;;;-3.79;100.00
59337;BME280;45115;52.002;4.686;2022-12-16T07:53:03;101530.31;;;-4.03;100.00
59337;BME280;45115;52.002;4.686;2022-12-16T07:55:56;101534.91;;;-4.15;100.00
59337;BME280;45115;52.002;4.686;2022-12-16T07:58:40;101533.78;;;-4.21;100.00
59337;BME280;45115;52.002;4.686;2022-12-16T08:01:24;101534.06;;;-4.24;100.00
59337;BME280;45115;52.002;4.686;2022-12-16T08:04:08;101541.19;;;-4.26;100.00
59337;BME280;45115;52.002;4.686;2022-12-16T08:06:53;101545.91;;;-4.21;100.00
59337;BME280;45115;52.002;4.686;2022-12-16T08:09:44;101561.13;;;-4.00;100.00
59337;BME280;45115;52.002;4.686;2022-12-16T08:12:28;101559.81;;;-3.69;100.00
59337;BME280;45115;52.002;4.686;2022-12-16T08:15:12;101558.03;;;-3.69;100.00
59337;BME280;45115;52.002;4.686;2022-12-16T08:17:56;101564.16;;;-3.78;100.00
59337;BME280;45115;52.002;4.686;2022-12-16T08:20:41;101573.34;;;-3.84;100.00
59337;BME280;45115;52.002;4.686;2022-12-16T08:23:25;101572.03;;;-3.88;100.00
59337;BME280;45115;52.002;4.686;2022-12-16T08:26:11;101572.19;;;-3.90;100.00
59337;BME280;45115;52.002;4.686;2022-12-16T08:28:55;101567.44;;;-3.94;100.00
59337;BME280;45115;52.002;4.686;2022-12-16T08:31:40;101568.91;;;-4.00;100.00
59337;BME280;45115;52.002;4.686;2022-12-16T08:34:24;101572.75;;;-4.04;100.00
59337;BME280;45115;52.002;4.686;2022-12-16T08:37:08;101568.34;;;-4.04;100.00
59337;BME280;45115;52.002;4.686;2022-12-16T08:39:52;101572.44;;;-4.01;100.00
59337;BME280;45115;52.002;4.686;2022-12-16T08:42:39;101578.94;;;-3.97;100.00
59337;BME280;45115;52.002;4.686;2022-12-16T08:45:23;101575.59;;;-3.89;100.00
59337;BME280;45115;52.002;4.686;2022-12-16T08:48:08;101578.84;;;-3.87;100.00
59337;BME280;45115;52.002;4.686;2022-12-16T08:50:59;101582.00;;;-3.75;100.00
59337;BME280;45115;52.002;4.686;2022-12-16T08:53:44;101583.00;;;-3.68;100.00
59337;BME280;45115;52.002;4.686;2022-12-16T08:56:28;101588.22;;;-3.60;100.00
59337;BME280;45115;52.002;4.686;2022-12-16T08:59:13;101580.16;;;-3.56;100.00
59337;BME280;45115;52.002;4.686;2022-12-16T09:01:57;101593.69;;;-3.44;100.00
59337;BME280;45115;52.002;4.686;2022-12-16T09:04:42;101592.06;;;-3.37;100.00
59337;BME280;45115;52.002;4.686;2022-12-16T09:07:26;101589.53;;;-3.29;100.00
59337;BME280;45115;52.002;4.686;2022-12-16T09:10:10;101600.75;;;-3.12;100.00
59337;BME280;45115;52.002;4.686;2022-12-16T09:13:04;101600.00;;;-2.96;100.00
59337;BME280;45115;52.002;4.686;2022-12-16T09:15:50;101611.56;;;-2.82;100.00
59337;BME280;45115;52.002;4.686;2022-12-16T09:18:34;101604.25;;;-2.78;100.00
59337;BME280;45115;52.002;4.686;2022-12-16T09:21:18;101615.69;;;-2.54;100.00
59337;BME280;45115;52.002;4.686;2022-12-16T09:24:03;101617.63;;;-2.31;100.00
59337;BME280;45115;52.002;4.686;2022-12-16T09:26:47;101625.09;;;-2.20;100.00
59337;BME280;45115;52.002;4.686;2022-12-16T09:29:31;101630.81;;;-2.08;100.00
59337;BME280;45115;52.002;4.686;2022-12-16T09:32:19;101639.09;;;-1.96;100.00
59337;BME280;45115;52.002;4.686;2022-12-16T09:35:04;101645.09;;;-1.87;100.00
59337;BME280;45115;52.002;4.686;2022-12-16T09:37:48;101652.56;;;-1.76;100.00
59337;BME280;45115;52.002;4.686;2022-12-16T09:40:33;101660.19;;;-1.66;100.00
59337;BME280;45115;52.002;4.686;2022-12-16T09:43:41;101669.91;;;-1.51;100.00
59337;BME280;45115;52.002;4.686;2022-12-16T09:46:32;101672.50;;;-1.43;100.00
59337;BME280;45115;52.002;4.686;2022-12-16T09:49:39;101671.16;;;-1.30;100.00
59337;BME280;45115;52.002;4.686;2022-12-16T09:52:41;101679.50;;;-0.87;100.00
59337;BME280;45115;52.002;4.686;2022-12-16T09:55:31;101686.31;;;-0.54;100.00
59337;BME280;45115;52.002;4.686;2022-12-16T09:58:17;101682.22;;;-0.25;100.00
59337;BME280;45115;52.002;4.686;2022-12-16T10:01:04;101678.97;;;-0.04;100.00
59337;BME280;45115;52.002;4.686;2022-12-16T10:03:49;101682.53;;;0.19;100.00
59337;BME280;45115;52.002;4.686;2022-12-16T10:06:41;101684.47;;;0.40;100.00
59337;BME280;45115;52.002;4.686;2022-12-16T10:09:31;101686.03;;;0.64;100.00
59337;BME280;45115;52.002;4.686;2022-12-16T10:12:26;101687.47;;;0.82;100.00
59337;BME280;45115;52.002;4.686;2022-12-16T10:15:20;101707.66;;;0.73;100.00
59337;BME280;45115;52.002;4.686;2022-12-16T10:18:14;101702.75;;;0.70;100.00
59337;BME280;45115;52.002;4.686;2022-12-16T10:21:03;101690.09;;;0.67;100.00
59337;BME280;45115;52.002;4.686;2022-12-16T10:23:56;101702.16;;;0.68;100.00
59337;BME280;45115;52.002;4.686;2022-12-16T10:26:52;101697.28;;;0.65;100.00
59337;BME280;45115;52.002;4.686;2022-12-16T10:29:42;101695.94;;;0.69;100.00
59337;BME280;45115;52.002;4.686;2022-12-16T10:32:31;101701.25;;;0.61;100.00
59337;BME280;45115;52.002;4.686;2022-12-16T10:35:20;101712.22;;;0.56;100.00
59337;BME280;45115;52.002;4.686;2022-12-16T10:38:06;101709.97;;;0.68;100.00
59337;BME280;45115;52.002;4.686;2022-12-16T10:41:00;101710.81;;;0.69;100.00
59337;BME280;45115;52.002;4.686;2022-12-16T10:43:47;101712.50;;;0.76;100.00
59337;BME280;45115;52.002;4.686;2022-12-16T10:46:33;101714.84;;;0.86;100.00
59337;BME280;45115;52.002;4.686;2022-12-16T10:49:19;101709.81;;;0.85;100.00
59337;BME280;45115;52.002;4.686;2022-12-16T10:52:04;101709.06;;;0.91;100.00
59337;BME280;45115;52.002;4.686;2022-12-16T10:54:57;101691.97;;;0.88;100.00
59337;BME280;45115;52.002;4.686;2022-12-16T10:57:53;101698.81;;;1.04;100.00
59337;BME280;45115;52.002;4.686;2022-12-16T11:00:44;101703.09;;;1.27;100.00
59337;BME280;45115;52.002;4.686;2022-12-16T11:03:29;101697.19;;;1.40;100.00
59337;BME280;45115;52.002;4.686;2022-12-16T11:06:18;101704.13;;;1.48;100.00
59337;BME280;45115;52.002;4.686;2022-12-16T11:09:24;101707.25;;;1.58;100.00
59337;BME280;45115;52.002;4.686;2022-12-16T11:12:21;101696.72;;;1.52;100.00
59337;BME280;45115;52.002;4.686;2022-12-16T11:15:23;101706.13;;;1.46;100.00
59337;BME280;45115;52.002;4.686;2022-12-16T11:18:12;101708.25;;;1.57;100.00
59337;BME280;45115;52.002;4.686;2022-12-16T11:21:10;101703.53;;;1.68;100.00
59337;BME280;45115;52.002;4.686;2022-12-16T11:24:12;101707.00;;;1.75;100.00
59337;BME280;45115;52.002;4.686;2022-12-16T11:26:58;101702.09;;;1.87;100.00
59337;BME280;45115;52.002;4.686;2022-12-16T11:29:54;101711.63;;;1.95;100.00
59337;BME280;45115;52.002;4.686;2022-12-16T11:32:43;101712.13;;;2.05;100.00
59337;BME280;45115;52.002;4.686;2022-12-16T11:35:36;101695.56;;;1.98;100.00
59337;BME280;45115;52.002;4.686;2022-12-16T11:38:27;101709.22;;;2.22;100.00
59337;BME280;45115;52.002;4.686;2022-12-16T11:41:23;101695.97;;;2.23;100.00
59337;BME280;45115;52.002;4.686;2022-12-16T11:44:16;101699.28;;;2.39;100.00
59337;BME280;45115;52.002;4.686;2022-12-16T11:47:01;101710.38;;;2.41;100.00
59337;BME280;45115;52.002;4.686;2022-12-16T11:49:49;101708.19;;;2.45;100.00
59337;BME280;45115;52.002;4.686;2022-12-16T11:52:35;101712.09;;;2.56;100.00
59337;BME280;45115;52.002;4.686;2022-12-16T11:55:24;101711.28;;;2.55;100.00
59337;BME280;45115;52.002;4.686;2022-12-16T11:58:15;101707.31;;;2.66;100.00
59337;BME280;45115;52.002;4.686;2022-12-16T12:01:09;101703.88;;;2.65;100.00
59337;BME280;45115;52.002;4.686;2022-12-16T12:03:56;101699.28;;;2.68;100.00
59337;BME280;45115;52.002;4.686;2022-12-16T12:06:58;101692.25;;;2.75;100.00
59337;BME280;45115;52.002;4.686;2022-12-16T12:10:05;101702.72;;;2.75;100.00
59337;BME280;45115;52.002;4.686;2022-12-16T12:12:59;101701.94;;;2.74;100.00
59337;BME280;45115;52.002;4.686;2022-12-16T12:15:51;101702.34;;;2.78;100.00
59337;BME280;45115;52.002;4.686;2022-12-16T12:18:43;101705.75;;;2.78;100.00
59337;BME280;45115;52.002;4.686;2022-12-16T12:21:33;101707.59;;;2.78;100.00
59337;BME280;45115;52.002;4.686;2022-12-16T12:24:28;101709.25;;;2.86;100.00
59337;BME280;45115;52.002;4.686;2022-12-16T12:27:23;101711.47;;;2.82;100.00
59337;BME280;45115;52.002;4.686;2022-12-16T12:30:13;101707.41;;;2.79;100.00
59337;BME280;45115;52.002;4.686;2022-12-16T12:33:12;101718.91;;;2.85;100.00
59337;BME280;45115;52.002;4.686;2022-12-16T12:36:09;101718.31;;;2.83;100.00
59337;BME280;45115;52.002;4.686;2022-12-16T12:39:04;101713.50;;;2.87;100.00
59337;BME280;45115;52.002;4.686;2022-12-16T12:42:04;101727.41;;;2.94;100.00
59337;BME280;45115;52.002;4.686;2022-12-16T12:45:03;101717.91;;;2.86;100.00
59337;BME280;45115;52.002;4.686;2022-12-16T12:47:54;101732.88;;;2.92;100.00
59337;BME280;45115;52.002;4.686;2022-12-16T12:50:46;101733.50;;;2.95;100.00
59337;BME280;45115;52.002;4.686;2022-12-16T12:53:40;101729.03;;;2.88;100.00
59337;BME280;45115;52.002;4.686;2022-12-16T12:56:35;101731.00;;;2.86;100.00
59337;BME280;45115;52.002;4.686;2022-12-16T12:59:28;101731.41;;;2.83;100.00
59337;BME280;45115;52.002;4.686;2022-12-16T13:02:14;101736.47;;;2.85;100.00
59337;BME280;45115;52.002;4.686;2022-12-16T13:05:03;101740.88;;;2.84;100.00
59337;BME280;45115;52.002;4.686;2022-12-16T13:07:48;101735.03;;;2.82;100.00
59337;BME280;45115;52.002;4.686;2022-12-16T13:10:34;101748.72;;;2.77;100.00
59337;BME280;45115;52.002;4.686;2022-12-16T13:13:31;101735.56;;;2.71;100.00
59337;BME280;45115;52.002;4.686;2022-12-16T13:19:52;101751.44;;;2.62;100.00
59337;BME280;45115;52.002;4.686;2022-12-16T13:22:39;101735.72;;;2.62;100.00
59337;BME280;45115;52.002;4.686;2022-12-16T13:25:31;101736.28;;;2.58;100.00
59337;BME280;45115;52.002;4.686;2022-12-16T13:28:24;101738.53;;;2.61;100.00
59337;BME280;45115;52.002;4.686;2022-12-16T13:31:10;101741.50;;;2.51;100.00
59337;BME280;45115;52.002;4.686;2022-12-16T13:34:00;101743.91;;;2.52;100.00
59337;BME280;45115;52.002;4.686;2022-12-16T13:36:54;101740.47;;;2.52;100.00
59337;BME280;45115;52.002;4.686;2022-12-16T13:40:02;101742.47;;;2.50;100.00
59337;BME280;45115;52.002;4.686;2022-12-16T13:42:51;101747.53;;;2.51;100.00
59337;BME280;45115;52.002;4.686;2022-12-16T13:45:37;101754.91;;;2.41;100.00
59337;BME280;45115;52.002;4.686;2022-12-16T13:48:29;101756.28;;;2.37;100.00
59337;BME280;45115;52.002;4.686;2022-12-16T13:55:11;101759.84;;;2.29;100.00
59337;BME280;45115;52.002;4.686;2022-12-16T13:58:02;101753.13;;;2.20;100.00
59337;BME280;45115;52.002;4.686;2022-12-16T14:00:56;101765.16;;;2.14;100.00
59337;BME280;45115;52.002;4.686;2022-12-16T14:03:44;101776.25;;;2.16;100.00
59337;BME280;45115;52.002;4.686;2022-12-16T14:06:31;101780.69;;;2.16;100.00
59337;BME280;45115;52.002;4.686;2022-12-16T14:09:26;101774.38;;;2.10;100.00